createdAt,value
2023-05-08T00:00:16.617Z,33.12
2023-05-08T00:01:16.691Z,33.13
2023-05-08T00:02:16.752Z,33.14
2023-05-08T00:03:16.855Z,33.16
2023-05-08T00:04:16.920Z,33.15
2023-05-08T00:05:16.919Z,33.15
2023-05-08T00:06:17.006Z,33.11
2023-05-08T00:07:17.083Z,33.14
2023-05-08T00:08:17.606Z,33.18
2023-05-08T00:09:17.206Z,33.16
2023-05-08T00:10:17.284Z,33.19
2023-05-08T00:11:17.359Z,33.15
2023-05-08T00:12:17.431Z,33.22
2023-05-08T00:13:17.622Z,33.17
2023-05-08T00:14:17.626Z,33.18
2023-05-08T00:15:17.610Z,33.22
2023-05-08T00:16:17.757Z,33.16
2023-05-08T00:17:17.796Z,33.19
2023-05-08T00:18:17.855Z,33.20
2023-05-08T00:19:17.946Z,33.18
2023-05-08T00:20:17.964Z,33.18
2023-05-08T00:21:18.074Z,33.25
2023-05-08T00:22:18.129Z,33.21
2023-05-08T00:23:18.232Z,33.29
2023-05-08T00:24:18.303Z,33.28
2023-05-08T00:25:18.325Z,33.25
2023-05-08T00:26:18.415Z,33.25
2023-05-08T00:27:18.500Z,33.25
2023-05-08T00:28:18.577Z,33.31
2023-05-08T00:29:18.656Z,33.28
2023-05-08T00:30:18.711Z,33.29
2023-05-08T00:31:18.798Z,33.31
2023-05-08T00:32:19.013Z,33.31
2023-05-08T00:33:18.941Z,33.34
2023-05-08T00:34:18.985Z,33.31
2023-05-08T00:35:19.053Z,33.35
2023-05-08T00:36:19.153Z,33.29
2023-05-08T00:37:19.205Z,33.32
2023-05-08T00:38:19.264Z,33.38
2023-05-08T00:39:19.370Z,33.38
2023-05-08T00:40:19.393Z,33.37
2023-05-08T00:41:19.454Z,33.34
2023-05-08T00:42:19.545Z,33.29
2023-05-08T00:43:19.641Z,33.35
2023-05-08T00:44:19.685Z,33.41
2023-05-08T00:45:19.773Z,33.37
2023-05-08T00:46:19.918Z,33.42
2023-05-08T00:47:19.917Z,33.41
2023-05-08T00:48:19.972Z,33.41
2023-05-08T00:49:20.115Z,33.39
2023-05-08T00:50:20.088Z,33.38
2023-05-08T00:51:20.201Z,33.42
2023-05-08T00:52:20.277Z,33.39
2023-05-08T00:53:20.310Z,33.39
2023-05-08T00:54:20.370Z,33.37
2023-05-08T00:55:20.491Z,33.41
2023-05-08T00:56:20.512Z,33.42
2023-05-08T00:57:20.607Z,33.42
2023-05-08T00:58:20.679Z,33.44
2023-05-08T00:59:20.792Z,33.39
2023-05-08T01:00:20.815Z,33.45
2023-05-08T01:01:20.923Z,33.45
2023-05-08T01:02:21.040Z,33.42
2023-05-08T01:03:21.136Z,33.46
2023-05-08T01:04:21.096Z,33.45
2023-05-08T01:05:21.160Z,33.45
2023-05-08T01:06:21.250Z,33.49
2023-05-08T01:07:21.319Z,33.46
2023-05-08T01:08:21.437Z,33.49
2023-05-08T01:09:21.474Z,33.48
2023-05-08T01:10:21.562Z,33.52
2023-05-08T01:11:21.617Z,33.46
2023-05-08T01:12:21.705Z,33.51
2023-05-08T01:13:21.806Z,33.48
2023-05-08T01:14:21.858Z,33.51
2023-05-08T01:15:21.926Z,33.49
2023-05-08T01:16:21.984Z,33.51
2023-05-08T01:17:22.106Z,33.51
2023-05-08T01:18:22.151Z,33.52
2023-05-08T01:19:22.248Z,33.54
2023-05-08T01:20:22.312Z,33.56
2023-05-08T01:21:22.381Z,33.51
2023-05-08T01:22:22.427Z,33.51
2023-05-08T01:23:22.542Z,33.61
2023-05-08T01:24:22.617Z,33.54
2023-05-08T01:25:22.637Z,33.59
2023-05-08T01:26:22.755Z,33.58
2023-05-08T01:27:22.833Z,33.62
2023-05-08T01:28:22.908Z,33.59
2023-05-08T01:29:22.984Z,33.62
2023-05-08T01:30:23.065Z,33.58
2023-05-08T01:31:23.157Z,33.61
2023-05-08T01:32:23.237Z,33.62
2023-05-08T01:33:23.471Z,33.65
2023-05-08T01:34:23.369Z,33.67
2023-05-08T01:35:23.460Z,33.65
2023-05-08T01:36:23.549Z,33.65
2023-05-08T01:37:23.608Z,33.68
2023-05-08T01:38:23.741Z,33.62
2023-05-08T01:39:23.729Z,33.63
2023-05-08T01:40:23.792Z,33.64
2023-05-08T01:41:23.902Z,33.68
2023-05-08T01:42:24.007Z,33.66
2023-05-08T01:43:24.039Z,33.68
2023-05-08T01:44:24.175Z,33.66
2023-05-08T01:45:24.263Z,33.71
2023-05-08T01:46:24.308Z,33.72
2023-05-08T01:47:24.385Z,33.71
2023-05-08T01:48:24.449Z,33.72
2023-05-08T01:49:24.540Z,33.68
2023-05-08T01:50:24.608Z,33.73
2023-05-08T01:51:24.675Z,33.67
2023-05-08T01:52:24.743Z,33.73
2023-05-08T01:53:24.850Z,33.72
2023-05-08T01:54:24.934Z,33.74
2023-05-08T01:55:25.013Z,33.72
2023-05-08T01:56:25.088Z,33.72
2023-05-08T01:57:25.157Z,33.75
2023-05-08T01:58:25.259Z,33.74
2023-05-08T01:59:25.356Z,33.71
2023-05-08T02:00:25.404Z,33.79
2023-05-08T02:01:25.902Z,33.78
2023-05-08T02:02:25.618Z,33.75
2023-05-08T02:03:25.752Z,33.75
2023-05-08T02:04:25.814Z,33.76
2023-05-08T02:05:25.800Z,33.77
2023-05-08T02:06:25.902Z,33.79
2023-05-08T02:07:26.001Z,33.77
2023-05-08T02:08:26.049Z,33.82
2023-05-08T02:09:26.150Z,33.78
2023-05-08T02:10:26.260Z,33.81
2023-05-08T02:11:26.298Z,33.81
2023-05-08T02:12:26.387Z,33.83
2023-05-08T02:13:26.562Z,33.82
2023-05-08T02:14:26.563Z,33.82
2023-05-08T02:15:26.643Z,33.84
2023-05-08T02:16:26.750Z,33.85
2023-05-08T02:17:26.886Z,33.88
2023-05-08T02:18:26.870Z,33.83
2023-05-08T02:19:26.975Z,33.82
2023-05-08T02:20:27.049Z,33.87
2023-05-08T02:21:27.131Z,33.87
2023-05-08T02:22:27.198Z,33.87
2023-05-08T02:23:27.325Z,33.89
2023-05-08T02:24:27.394Z,33.88
2023-05-08T02:25:27.469Z,33.82
2023-05-08T02:26:27.538Z,33.87
2023-05-08T02:27:27.617Z,33.85
2023-05-08T02:28:27.705Z,33.87
2023-05-08T02:29:27.810Z,33.89
2023-05-08T02:30:27.881Z,33.89
2023-05-08T02:31:27.966Z,33.89
2023-05-08T02:32:28.072Z,33.88
2023-05-08T02:33:28.097Z,33.88
2023-05-08T02:34:28.205Z,33.85
2023-05-08T02:35:28.290Z,33.89
2023-05-08T02:36:28.362Z,33.93
2023-05-08T02:37:28.416Z,33.92
2023-05-08T02:38:28.518Z,33.94
2023-05-08T02:39:28.594Z,33.92
2023-05-08T02:40:28.652Z,33.90
2023-05-08T02:41:28.737Z,33.97
2023-05-08T02:42:28.829Z,33.89
2023-05-08T02:43:28.928Z,33.92
2023-05-08T02:44:29.366Z,34.00
2023-05-08T02:45:29.089Z,33.98
2023-05-08T02:46:29.171Z,33.95
2023-05-08T02:47:29.274Z,34.00
2023-05-08T02:48:29.301Z,33.96
2023-05-08T02:49:29.354Z,33.94
2023-05-08T02:50:29.416Z,33.95
2023-05-08T02:51:29.508Z,33.97
2023-05-08T02:52:29.585Z,33.96
2023-05-08T02:53:29.659Z,33.95
2023-05-08T02:54:29.771Z,33.98
2023-05-08T02:55:29.835Z,33.97
2023-05-08T02:56:29.934Z,34.00
2023-05-08T02:57:30.021Z,33.93
2023-05-08T02:58:30.114Z,33.98
2023-05-08T02:59:30.185Z,34.04
2023-05-08T03:00:30.278Z,34.01
2023-05-08T03:01:30.387Z,33.98
2023-05-08T03:02:30.506Z,33.98
2023-05-08T03:03:30.558Z,34.01
2023-05-08T03:04:30.596Z,34.01
2023-05-08T03:05:30.715Z,34.04
2023-05-08T03:06:30.770Z,34.05
2023-05-08T03:07:30.870Z,34.00
2023-05-08T03:08:30.982Z,34.05
2023-05-08T03:09:31.039Z,34.05
2023-05-08T03:10:31.092Z,34.05
2023-05-08T03:11:31.177Z,34.04
2023-05-08T03:12:31.277Z,34.05
2023-05-08T03:13:31.396Z,34.08
2023-05-08T03:14:31.443Z,34.02
2023-05-08T03:15:31.512Z,34.06
2023-05-08T03:16:31.685Z,34.05
2023-05-08T03:17:31.706Z,34.09
2023-05-08T03:18:31.775Z,34.09
2023-05-08T03:19:31.873Z,34.05
2023-05-08T03:20:31.990Z,34.10
2023-05-08T03:21:32.106Z,34.06
2023-05-08T03:22:32.114Z,34.08
2023-05-08T03:23:32.227Z,34.08
2023-05-08T03:24:32.292Z,34.08
2023-05-08T03:25:32.378Z,34.10
2023-05-08T03:26:32.470Z,34.10
2023-05-08T03:27:32.544Z,34.10
2023-05-08T03:28:32.625Z,34.06
2023-05-08T03:29:32.703Z,34.09
2023-05-08T03:30:32.792Z,34.13
2023-05-08T03:31:32.969Z,34.11
2023-05-08T03:32:33.070Z,34.13
2023-05-08T03:33:33.028Z,34.14
2023-05-08T03:34:33.142Z,34.14
2023-05-08T03:35:33.237Z,34.13
2023-05-08T03:36:33.313Z,34.12
2023-05-08T03:37:33.408Z,34.12
2023-05-08T03:38:33.491Z,34.14
2023-05-08T03:39:33.567Z,34.10
2023-05-08T03:40:33.653Z,34.13
2023-05-08T03:41:33.737Z,34.09
2023-05-08T03:42:33.840Z,34.14
2023-05-08T03:43:33.914Z,34.13
2023-05-08T03:44:34.009Z,34.14
2023-05-08T03:45:34.115Z,34.16
2023-05-08T03:46:34.200Z,34.13
2023-05-08T03:47:34.330Z,34.17
2023-05-08T03:48:34.373Z,34.18
2023-05-08T03:49:34.465Z,34.13
2023-05-08T03:50:34.530Z,34.14
2023-05-08T03:51:34.649Z,34.16
2023-05-08T03:52:34.750Z,34.16
2023-05-08T03:53:34.817Z,34.18
2023-05-08T03:54:34.937Z,34.15
2023-05-08T03:55:35.014Z,34.17
2023-05-08T03:56:35.118Z,34.15
2023-05-08T03:57:35.176Z,34.19
2023-05-08T03:58:35.307Z,34.17
2023-05-08T03:59:35.371Z,34.19
2023-05-08T04:00:35.435Z,34.22
2023-05-08T04:01:35.595Z,34.19
2023-05-08T04:02:35.763Z,34.16
2023-05-08T04:03:35.737Z,34.22
2023-05-08T04:04:35.802Z,34.22
2023-05-08T04:05:35.896Z,34.19
2023-05-08T04:06:48.543Z,34.22
2023-05-08T04:07:37.002Z,34.22
2023-05-08T04:08:36.025Z,34.19
2023-05-08T04:09:36.057Z,34.22
2023-05-08T04:10:36.081Z,34.21
2023-05-08T04:11:36.149Z,34.21
2023-05-08T04:12:36.186Z,34.23
2023-05-08T04:13:36.186Z,34.26
2023-05-08T04:14:36.292Z,34.25
2023-05-08T04:15:36.287Z,34.25
2023-05-08T04:16:36.324Z,34.23
2023-05-08T04:17:36.417Z,34.26
2023-05-08T04:18:36.522Z,34.22
2023-05-08T04:19:36.572Z,34.23
2023-05-08T04:20:36.655Z,34.27
2023-05-08T04:21:36.752Z,34.30
2023-05-08T04:22:36.839Z,34.27
2023-05-08T04:23:36.937Z,34.29
2023-05-08T04:24:37.052Z,34.27
2023-05-08T04:25:37.139Z,34.25
2023-05-08T04:26:37.218Z,34.26
2023-05-08T04:27:37.288Z,34.30
2023-05-08T04:28:37.384Z,34.25
2023-05-08T04:29:37.490Z,34.27
2023-05-08T04:30:37.559Z,34.27
2023-05-08T04:31:37.694Z,34.25
2023-05-08T04:32:40.118Z,34.27
2023-05-08T04:33:37.783Z,34.32
2023-05-08T04:34:37.861Z,34.30
2023-05-08T04:35:37.846Z,34.34
2023-05-08T04:36:37.874Z,34.28
2023-05-08T04:37:37.887Z,34.27
2023-05-08T04:38:37.923Z,34.30
2023-05-08T04:39:37.974Z,34.29
2023-05-08T04:40:37.956Z,34.33
2023-05-08T04:41:38.007Z,34.31
2023-05-08T04:42:38.042Z,34.32
2023-05-08T04:43:38.045Z,34.30
2023-05-08T04:44:38.112Z,34.30
2023-05-08T04:45:38.134Z,34.30
2023-05-08T04:46:38.297Z,34.31
2023-05-08T04:47:38.300Z,34.31
2023-05-08T04:48:38.209Z,34.33
2023-05-08T04:49:38.230Z,34.32
2023-05-08T04:50:38.325Z,34.33
2023-05-08T04:51:38.253Z,34.34
2023-05-08T04:52:38.294Z,34.30
2023-05-08T04:53:38.342Z,34.35
2023-05-08T04:54:38.353Z,34.34
2023-05-08T04:55:38.364Z,34.35
2023-05-08T04:56:38.402Z,34.34
2023-05-08T04:57:38.443Z,34.34
2023-05-08T04:58:38.441Z,34.30
2023-05-08T04:59:38.476Z,34.34
2023-05-08T05:00:38.511Z,34.31
2023-05-08T05:01:38.625Z,34.30
2023-05-08T05:02:38.644Z,34.30
2023-05-08T05:03:38.651Z,34.28
2023-05-08T05:04:38.611Z,34.32
2023-05-08T05:05:39.111Z,34.32
2023-05-08T05:06:38.746Z,34.32
2023-05-08T05:07:38.654Z,34.36
2023-05-08T05:08:38.688Z,34.35
2023-05-08T05:09:38.711Z,34.32
2023-05-08T05:10:38.745Z,34.34
2023-05-08T05:11:38.860Z,34.35
2023-05-08T05:12:38.971Z,34.38
2023-05-08T05:13:38.998Z,34.35
2023-05-08T05:14:39.109Z,34.34
2023-05-08T05:15:39.191Z,34.38
2023-05-08T05:16:39.357Z,34.31
2023-05-08T05:17:39.407Z,34.32
2023-05-08T05:18:40.401Z,34.34
2023-05-08T05:19:39.569Z,34.34
2023-05-08T05:20:39.686Z,34.38
2023-05-08T05:21:39.748Z,34.35
2023-05-08T05:22:39.848Z,34.32
2023-05-08T05:23:39.998Z,34.32
2023-05-08T05:24:40.031Z,34.36
2023-05-08T05:25:40.117Z,34.32
2023-05-08T05:26:40.176Z,34.36
2023-05-08T05:27:40.308Z,34.35
2023-05-08T05:28:40.395Z,34.35
2023-05-08T05:29:40.476Z,34.35
2023-05-08T05:30:40.584Z,34.34
2023-05-08T05:31:40.685Z,34.35
2023-05-08T05:32:40.793Z,34.34
2023-05-08T05:33:40.871Z,34.34
2023-05-08T05:34:40.949Z,34.34
2023-05-08T05:35:41.029Z,34.60
2023-05-08T05:36:41.138Z,34.47
2023-05-08T05:37:41.218Z,34.59
2023-05-08T05:38:41.314Z,35.32
2023-05-08T05:39:41.428Z,35.68
2023-05-08T05:40:41.493Z,35.33
2023-05-08T05:41:41.583Z,35.20
2023-05-08T05:42:41.672Z,35.20
2023-05-08T05:43:41.782Z,35.62
2023-05-08T05:44:41.847Z,36.44
2023-05-08T05:45:41.941Z,36.56
2023-05-08T05:46:44.131Z,36.39
2023-05-08T05:47:42.174Z,36.30
2023-05-08T05:48:42.242Z,36.15
2023-05-08T05:49:42.334Z,36.76
2023-05-08T05:50:42.399Z,36.99
2023-05-08T05:51:42.504Z,37.51
2023-05-08T05:52:42.591Z,37.23
2023-05-08T05:53:42.636Z,36.81
2023-05-08T05:54:42.775Z,37.24
2023-05-08T05:55:42.852Z,38.96
2023-05-08T05:56:42.945Z,38.69
2023-05-08T05:57:43.026Z,38.34
2023-05-08T05:58:43.094Z,38.32
2023-05-08T05:59:43.520Z,38.23
2023-05-08T06:00:43.232Z,38.19
2023-05-08T06:01:43.289Z,38.28
2023-05-08T06:02:43.405Z,38.42
2023-05-08T06:03:43.428Z,38.54
2023-05-08T06:04:43.436Z,38.62
2023-05-08T06:05:43.477Z,38.95
2023-05-08T06:06:43.553Z,38.93
2023-05-08T06:07:43.589Z,39.03
2023-05-08T06:08:43.647Z,39.02
2023-05-08T06:09:43.719Z,39.14
2023-05-08T06:10:43.717Z,39.10
2023-05-08T06:11:43.735Z,39.23
2023-05-08T06:12:43.791Z,39.31
2023-05-08T06:13:43.843Z,39.32
2023-05-08T06:14:43.921Z,39.49
2023-05-08T06:15:43.857Z,39.71
2023-05-08T06:16:43.943Z,39.56
2023-05-08T06:17:43.984Z,39.68
2023-05-08T06:18:44.100Z,40.28
2023-05-08T06:19:44.009Z,40.12
2023-05-08T06:20:44.041Z,40.27
2023-05-08T06:21:44.085Z,40.26
2023-05-08T06:22:44.112Z,40.33
2023-05-08T06:23:44.139Z,40.68
2023-05-08T06:24:44.230Z,40.76
2023-05-08T06:25:44.235Z,40.91
2023-05-08T06:26:44.265Z,40.82
2023-05-08T06:27:44.296Z,40.98
2023-05-08T06:28:44.362Z,41.01
2023-05-08T06:29:44.430Z,41.09
2023-05-08T06:30:44.496Z,41.09
2023-05-08T06:31:44.535Z,41.46
2023-05-08T06:32:44.606Z,41.44
2023-05-08T06:33:44.618Z,41.54
2023-05-08T06:34:44.685Z,41.77
2023-05-08T06:35:44.739Z,41.79
2023-05-08T06:36:44.821Z,41.88
2023-05-08T06:37:44.890Z,41.86
2023-05-08T06:38:44.923Z,42.03
2023-05-08T06:39:45.012Z,41.94
2023-05-08T06:40:45.076Z,42.12
2023-05-08T06:41:45.132Z,42.22
2023-05-08T06:42:45.199Z,42.13
2023-05-08T06:43:45.296Z,42.40
2023-05-08T06:44:45.359Z,42.61
2023-05-08T06:45:45.405Z,43.75
2023-05-08T06:46:45.524Z,42.94
2023-05-08T06:47:45.597Z,43.06
2023-05-08T06:48:45.633Z,42.98
2023-05-08T06:49:45.964Z,42.94
2023-05-08T06:50:45.792Z,42.67
2023-05-08T06:51:45.869Z,43.05
2023-05-08T06:52:45.891Z,42.62
2023-05-08T06:53:45.907Z,42.47
2023-05-08T06:54:45.958Z,42.39
2023-05-08T06:55:46.493Z,42.40
2023-05-08T06:56:46.074Z,42.37
2023-05-08T06:57:46.061Z,42.43
2023-05-08T06:58:53.751Z,42.30
2023-05-08T06:59:47.083Z,42.32
2023-05-08T07:00:46.081Z,42.08
2023-05-08T07:01:46.129Z,42.31
2023-05-08T07:02:46.148Z,42.64
2023-05-08T07:03:46.160Z,42.47
2023-05-08T07:04:46.188Z,42.46
2023-05-08T07:05:46.199Z,42.34
2023-05-08T07:06:46.199Z,42.24
2023-05-08T07:07:46.232Z,42.34
2023-05-08T07:08:46.242Z,42.29
2023-05-08T07:09:46.266Z,42.31
2023-05-08T07:10:46.263Z,42.29
2023-05-08T07:11:46.289Z,42.38
2023-05-08T07:12:46.298Z,42.36
2023-05-08T07:13:46.300Z,42.31
2023-05-08T07:14:46.490Z,42.30
2023-05-08T07:15:46.475Z,42.37
2023-05-08T07:16:46.400Z,42.30
2023-05-08T07:17:46.423Z,42.31
2023-05-08T07:18:46.394Z,42.35
2023-05-08T07:19:46.401Z,42.40
2023-05-08T07:20:46.469Z,42.31
2023-05-08T07:21:46.496Z,42.39
2023-05-08T07:22:46.501Z,42.40
2023-05-08T07:23:46.490Z,42.37
2023-05-08T07:24:46.509Z,42.35
2023-05-08T07:25:46.523Z,42.33
2023-05-08T07:26:46.517Z,42.36
2023-05-08T07:27:46.565Z,42.32
2023-05-08T07:28:46.561Z,42.30
2023-05-08T07:29:46.587Z,42.25
2023-05-08T07:30:46.620Z,42.29
2023-05-08T07:31:46.660Z,42.27
2023-05-08T07:32:46.656Z,42.31
2023-05-08T07:33:46.614Z,42.24
2023-05-08T07:34:46.638Z,42.26
2023-05-08T07:35:46.660Z,42.19
2023-05-08T07:36:46.682Z,42.26
2023-05-08T07:37:46.740Z,42.23
2023-05-08T07:38:46.819Z,42.18
2023-05-08T07:39:46.840Z,42.12
2023-05-08T07:40:47.009Z,42.52
2023-05-08T07:41:49.606Z,43.16
2023-05-08T07:42:46.917Z,43.00
2023-05-08T07:43:46.955Z,42.97
2023-05-08T07:44:54.442Z,43.32
2023-05-08T07:45:48.512Z,43.44
2023-05-08T07:46:48.004Z,42.78
2023-05-08T07:47:47.083Z,43.38
2023-05-08T07:48:47.037Z,42.81
2023-05-08T07:49:47.048Z,42.38
2023-05-08T07:50:47.450Z,41.99
2023-05-08T07:51:47.084Z,41.71
2023-05-08T07:52:49.799Z,41.64
2023-05-08T07:53:47.148Z,42.03
2023-05-08T07:54:47.154Z,41.60
2023-05-08T07:55:47.472Z,41.46
2023-05-08T07:56:47.187Z,41.74
2023-05-08T07:57:47.225Z,41.52
2023-05-08T07:58:47.268Z,41.67
2023-05-08T07:59:47.280Z,41.10
2023-05-08T08:00:47.320Z,41.50
2023-05-08T08:01:47.466Z,41.51
2023-05-08T08:02:47.985Z,41.74
2023-05-08T08:03:47.484Z,41.53
2023-05-08T08:04:47.418Z,41.65
2023-05-08T08:05:47.467Z,41.77
2023-05-08T08:06:47.485Z,41.35
2023-05-08T08:07:47.524Z,41.88
2023-05-08T08:08:47.520Z,41.64
2023-05-08T08:09:47.546Z,41.69
2023-05-08T08:10:47.589Z,41.66
2023-05-08T08:11:47.602Z,41.36
2023-05-08T08:12:47.686Z,41.51
2023-05-08T08:13:47.649Z,41.47
2023-05-08T08:14:47.698Z,41.40
2023-05-08T08:15:47.694Z,41.32
2023-05-08T08:16:47.817Z,41.28
2023-05-08T08:17:47.864Z,41.48
2023-05-08T08:18:47.872Z,41.25
2023-05-08T08:19:47.813Z,41.14
2023-05-08T08:20:47.815Z,41.03
2023-05-08T08:21:47.846Z,41.07
2023-05-08T08:22:47.882Z,41.09
2023-05-08T08:23:47.877Z,40.94
2023-05-08T08:24:47.892Z,41.24
2023-05-08T08:25:47.934Z,40.91
2023-05-08T08:26:47.973Z,40.97
2023-05-08T08:27:47.998Z,41.07
2023-05-08T08:28:48.018Z,41.11
2023-05-08T08:29:48.051Z,40.95
2023-05-08T08:30:48.099Z,40.90
2023-05-08T08:31:48.082Z,40.77
2023-05-08T08:32:48.142Z,41.01
2023-05-08T08:33:48.099Z,40.86
2023-05-08T08:34:48.250Z,41.03
2023-05-08T08:35:48.492Z,40.90
2023-05-08T08:36:48.237Z,41.97
2023-05-08T08:37:48.237Z,41.02
2023-05-08T08:38:48.260Z,40.66
2023-05-08T08:39:48.302Z,40.81
2023-05-08T08:40:48.318Z,40.96
2023-05-08T08:41:48.352Z,40.79
2023-05-08T08:42:48.379Z,41.26
2023-05-08T08:43:48.416Z,40.72
2023-05-08T08:44:48.437Z,40.30
2023-05-08T08:45:48.481Z,40.15
2023-05-08T08:46:48.517Z,39.93
2023-05-08T08:47:49.553Z,40.76
2023-05-08T08:48:48.513Z,40.92
2023-05-08T08:49:48.564Z,40.79
2023-05-08T08:50:49.109Z,41.66
2023-05-08T08:51:48.626Z,40.86
2023-05-08T08:52:48.645Z,40.90
2023-05-08T08:53:48.701Z,41.07
2023-05-08T08:54:48.716Z,41.29
2023-05-08T08:55:48.735Z,41.40
2023-05-08T08:56:48.759Z,41.53
2023-05-08T08:57:48.797Z,41.31
2023-05-08T08:58:48.802Z,41.40
2023-05-08T08:59:48.823Z,41.37
2023-05-08T09:00:48.861Z,41.38
2023-05-08T09:01:48.920Z,41.34
2023-05-08T09:02:48.952Z,41.79
2023-05-08T09:03:50.139Z,41.44
2023-05-08T09:04:48.937Z,41.71
2023-05-08T09:05:48.941Z,41.62
2023-05-08T09:06:49.094Z,41.28
2023-05-08T09:07:49.025Z,41.47
2023-05-08T09:08:49.052Z,41.41
2023-05-08T09:09:49.102Z,41.63
2023-05-08T09:10:49.191Z,41.60
2023-05-08T09:11:49.185Z,41.68
2023-05-08T09:12:49.231Z,41.81
2023-05-08T09:13:49.226Z,41.76
2023-05-08T09:14:49.241Z,41.81
2023-05-08T09:15:49.380Z,41.80
2023-05-08T09:16:49.338Z,41.43
2023-05-08T09:17:49.345Z,41.68
2023-05-08T09:18:49.335Z,41.76
2023-05-08T09:19:49.402Z,41.76
2023-05-08T09:20:49.400Z,41.85
2023-05-08T09:21:49.437Z,41.88
2023-05-08T09:22:49.552Z,41.83
2023-05-08T09:23:49.473Z,41.78
2023-05-08T09:24:49.504Z,41.92
2023-05-08T09:25:50.022Z,41.97
2023-05-08T09:26:49.554Z,42.00
2023-05-08T09:27:49.595Z,42.16
2023-05-08T09:28:49.617Z,42.19
2023-05-08T09:29:49.679Z,42.18
2023-05-08T09:30:49.753Z,42.17
2023-05-08T09:31:49.790Z,42.07
2023-05-08T09:32:49.948Z,42.10
2023-05-08T09:33:49.937Z,42.09
2023-05-08T09:34:49.989Z,42.10
2023-05-08T09:35:50.524Z,42.16
2023-05-08T09:36:50.166Z,42.22
2023-05-08T09:37:50.256Z,42.15
2023-05-08T09:38:50.418Z,42.24
2023-05-08T09:39:50.368Z,42.21
2023-05-08T09:40:50.530Z,42.69
2023-05-08T09:41:50.426Z,41.22
2023-05-08T09:42:50.458Z,40.56
2023-05-08T09:43:50.532Z,40.99
2023-05-08T09:44:50.569Z,40.72
2023-05-08T09:45:51.054Z,40.68
2023-05-08T09:46:50.705Z,40.25
2023-05-08T09:47:50.774Z,40.46
2023-05-08T09:48:50.792Z,40.44
2023-05-08T09:49:50.892Z,40.22
2023-05-08T09:50:50.927Z,40.02
2023-05-08T09:51:51.017Z,39.92
2023-05-08T09:52:51.053Z,39.96
2023-05-08T09:53:51.125Z,39.81
2023-05-08T09:54:51.306Z,39.78
2023-05-08T09:55:51.274Z,39.70
2023-05-08T09:56:51.316Z,39.64
2023-05-08T09:57:51.380Z,39.49
2023-05-08T09:58:51.457Z,39.53
2023-05-08T09:59:51.540Z,39.50
2023-05-08T10:00:51.607Z,39.50
2023-05-08T10:01:51.608Z,39.56
2023-05-08T10:02:51.877Z,39.41
2023-05-08T10:03:51.816Z,39.45
2023-05-08T10:04:51.934Z,39.52
2023-05-08T10:05:51.886Z,39.45
2023-05-08T10:06:52.935Z,39.49
2023-05-08T10:07:52.023Z,39.40
2023-05-08T10:08:52.093Z,39.40
2023-05-08T10:09:52.161Z,39.45
2023-05-08T10:10:52.323Z,39.32
2023-05-08T10:11:52.307Z,39.43
2023-05-08T10:12:52.398Z,39.27
2023-05-08T10:13:52.422Z,39.29
2023-05-08T10:14:52.492Z,39.21
2023-05-08T10:15:53.041Z,39.22
2023-05-08T10:16:52.667Z,39.13
2023-05-08T10:17:52.726Z,39.08
2023-05-08T10:18:52.731Z,39.11
2023-05-08T10:19:52.808Z,39.02
2023-05-08T10:20:52.911Z,39.04
2023-05-08T10:21:52.978Z,39.02
2023-05-08T10:22:53.021Z,38.97
2023-05-08T10:23:53.078Z,38.94
2023-05-08T10:24:53.148Z,38.96
2023-05-08T10:25:55.047Z,38.90
2023-05-08T10:27:05.556Z,38.90
2023-05-08T10:27:54.355Z,38.86
2023-05-08T10:28:53.342Z,38.93
2023-05-08T10:29:53.425Z,38.94
2023-05-08T10:30:53.450Z,38.90
2023-05-08T10:31:53.479Z,38.87
2023-05-08T10:32:53.494Z,38.89
2023-05-08T10:33:53.514Z,38.91
2023-05-08T10:34:53.531Z,38.78
2023-05-08T10:35:53.617Z,38.81
2023-05-08T10:36:54.306Z,38.92
2023-05-08T10:37:53.604Z,39.44
2023-05-08T10:38:53.678Z,40.23
2023-05-08T10:39:53.763Z,39.70
2023-05-08T10:40:53.852Z,40.06
2023-05-08T10:41:53.957Z,40.34
2023-05-08T10:42:54.098Z,40.34
2023-05-08T10:43:54.080Z,40.25
2023-05-08T10:44:54.191Z,39.73
2023-05-08T10:45:54.257Z,39.72
2023-05-08T10:46:54.570Z,39.27
2023-05-08T10:47:54.351Z,39.71
2023-05-08T10:48:54.427Z,40.24
2023-05-08T10:49:54.497Z,39.76
2023-05-08T10:50:54.534Z,39.63
2023-05-08T10:51:54.577Z,39.53
2023-05-08T10:52:54.650Z,39.42
2023-05-08T10:53:55.576Z,39.44
2023-05-08T10:54:54.726Z,39.44
2023-05-08T10:55:54.773Z,39.27
2023-05-08T10:56:54.833Z,39.62
2023-05-08T10:57:54.853Z,39.41
2023-05-08T10:58:54.926Z,39.27
2023-05-08T10:59:54.985Z,39.27
2023-05-08T11:00:55.013Z,39.16
2023-05-08T11:01:55.135Z,39.08
2023-05-08T11:02:55.162Z,39.11
2023-05-08T11:03:55.417Z,39.21
2023-05-08T11:04:55.164Z,39.17
2023-05-08T11:05:55.229Z,39.05
2023-05-08T11:06:55.271Z,39.02
2023-05-08T11:07:55.289Z,39.12
2023-05-08T11:08:55.296Z,38.77
2023-05-08T11:09:55.370Z,38.76
2023-05-08T11:10:55.373Z,38.96
2023-05-08T11:11:55.411Z,38.77
2023-05-08T11:12:55.466Z,38.87
2023-05-08T11:13:55.524Z,39.03
2023-05-08T11:14:55.520Z,38.92
2023-05-08T11:15:55.570Z,39.11
2023-05-08T11:16:55.619Z,39.38
2023-05-08T11:17:55.724Z,38.88
2023-05-08T11:18:55.666Z,39.14
2023-05-08T11:19:55.715Z,39.40
2023-05-08T11:20:55.731Z,39.08
2023-05-08T11:21:55.765Z,39.25
2023-05-08T11:22:55.752Z,39.18
2023-05-08T11:23:55.777Z,38.83
2023-05-08T11:24:55.814Z,39.33
2023-05-08T11:25:55.845Z,39.50
2023-05-08T11:26:55.880Z,39.33
2023-05-08T11:27:55.863Z,39.74
2023-05-08T11:28:55.899Z,39.96
2023-05-08T11:29:55.924Z,39.89
2023-05-08T11:30:55.968Z,40.45
2023-05-08T11:31:56.082Z,38.58
2023-05-08T11:32:56.113Z,38.47
2023-05-08T11:33:56.045Z,39.13
2023-05-08T11:34:56.091Z,39.24
2023-05-08T11:35:56.165Z,39.28
2023-05-08T11:36:56.181Z,39.08
2023-05-08T11:37:56.211Z,39.09
2023-05-08T11:38:56.432Z,38.94
2023-05-08T11:39:56.353Z,38.74
2023-05-08T11:40:56.395Z,38.60
2023-05-08T11:41:56.409Z,38.56
2023-05-08T11:42:56.453Z,38.36
2023-05-08T11:43:56.519Z,38.35
2023-05-08T11:44:56.551Z,38.29
2023-05-08T11:45:56.611Z,38.29
2023-05-08T11:46:56.709Z,38.33
2023-05-08T11:47:56.745Z,38.53
2023-05-08T11:48:56.755Z,38.67
2023-05-08T11:49:56.781Z,38.57
2023-05-08T11:50:56.812Z,38.56
2023-05-08T11:51:56.880Z,38.54
2023-05-08T11:52:56.967Z,38.71
2023-05-08T11:53:56.997Z,38.48
2023-05-08T11:54:57.010Z,39.08
2023-05-08T11:55:57.058Z,38.64
2023-05-08T11:56:57.152Z,38.66
2023-05-08T11:57:57.138Z,38.44
2023-05-08T11:58:57.189Z,38.84
2023-05-08T11:59:57.215Z,38.99
2023-05-08T12:00:57.306Z,38.82
2023-05-08T12:02:07.820Z,38.46
2023-05-08T12:02:58.412Z,38.77
2023-05-08T12:03:57.412Z,38.24
2023-05-08T12:04:57.383Z,38.43
2023-05-08T12:05:57.312Z,38.46
2023-05-08T12:06:57.344Z,39.03
2023-05-08T12:07:57.349Z,38.21
2023-05-08T12:08:57.336Z,38.53
2023-05-08T12:09:57.345Z,38.30
2023-05-08T12:10:57.362Z,38.68
2023-05-08T12:11:57.409Z,38.18
2023-05-08T12:12:57.453Z,38.71
2023-05-08T12:13:57.423Z,38.68
2023-05-08T12:14:57.387Z,38.36
2023-05-08T12:15:57.413Z,38.60
2023-05-08T12:16:57.492Z,38.71
2023-05-08T12:17:57.478Z,38.82
2023-05-08T12:18:57.441Z,39.11
2023-05-08T12:19:57.449Z,38.64
2023-05-08T12:20:57.469Z,38.41
2023-05-08T12:21:57.462Z,38.38
2023-05-08T12:22:57.496Z,38.45
2023-05-08T12:23:57.503Z,38.52
2023-05-08T12:24:57.530Z,38.38
2023-05-08T12:25:57.526Z,38.17
2023-05-08T12:26:57.566Z,38.15
2023-05-08T12:27:57.595Z,38.11
2023-05-08T12:28:57.633Z,37.91
2023-05-08T12:29:57.645Z,37.84
2023-05-08T12:30:57.779Z,38.10
2023-05-08T12:31:57.775Z,37.88
2023-05-08T12:32:57.794Z,37.72
2023-05-08T12:33:57.837Z,37.64
2023-05-08T12:34:57.879Z,37.60
2023-05-08T12:35:57.912Z,37.51
2023-05-08T12:36:57.981Z,37.37
2023-05-08T12:37:58.003Z,37.36
2023-05-08T12:38:58.051Z,37.26
2023-05-08T12:39:58.085Z,37.12
2023-05-08T12:40:58.165Z,37.10
2023-05-08T12:42:00.174Z,37.10
2023-05-08T12:42:58.360Z,37.03
2023-05-08T12:43:58.397Z,36.92
2023-05-08T12:44:58.426Z,36.90
2023-05-08T12:45:58.461Z,36.81
2023-05-08T12:46:58.621Z,36.68
2023-05-08T12:47:58.589Z,36.76
2023-05-08T12:48:58.582Z,36.72
2023-05-08T12:49:58.634Z,36.69
2023-05-08T12:50:58.791Z,36.80
2023-05-08T12:51:58.738Z,36.73
2023-05-08T12:52:58.788Z,36.62